Time;durP1;ratioP1;P1;durP2;ratioP2;P2;SDS_P1;SDS_P2;PMS_P1;PMS_P2;Temp;Humidity;BMP_temperature;BMP_pressure;BME280_temperature;BME280_humidity;BME280_pressure;Samples;Min_cycle;Max_cycle;Signal;HPM_P1;HPM_P2
2022/08/22 00:00:11;;;;;;;17.52;4.47;;;;;;;;;;1790066;78;22340;-74
2022/08/22 00:02:38;;;;;;;18.15;5.40;;;;;;;;;;1793515;78;21119;-75
2022/08/22 00:05:06;;;;;;;23.57;5.40;;;;;;;;;;1796832;78;21070;-73
2022/08/22 00:07:40;;;;;;;22.37;5.20;;;;;;;;;;1795960;78;21027;-73
2022/08/22 00:10:09;;;;;;;25.32;5.37;;;;;;;;;;1796169;78;21080;-74
2022/08/22 00:12:39;;;;;;;21.87;4.45;;;;;;;;;;1796865;78;21001;-74
2022/08/22 00:15:07;;;;;;;17.02;3.80;;;;;;;;;;1795624;78;21082;-74
2022/08/22 00:17:39;;;;;;;19.65;5.58;;;;;;;;;;1789533;78;21581;-74
2022/08/22 00:20:08;;;;;;;18.23;4.25;;;;;;;;;;1789487;79;21077;-75
2022/08/22 00:22:42;;;;;;;11.35;3.80;;;;;;;;;;1784488;78;21139;-74
2022/08/22 00:25:13;;;;;;;20.37;4.72;;;;;;;;;;1784288;79;21519;-74
2022/08/22 00:27:58;;;;;;;21.37;6.10;;;;;;;;;;1785919;79;21529;-75
2022/08/22 00:30:24;;;;;;;24.02;4.95;;;;;;;;;;1791843;79;22309;-73
2022/08/22 00:32:52;;;;;;;19.52;5.42;;;;;;;;;;1795243;79;21521;-73
2022/08/22 00:35:23;;;;;;;20.05;4.37;;;;;;;;;;1719533;83;20996;-74
2022/08/22 00:37:57;;;;;;;19.37;4.37;;;;;;;;;;1787356;79;20990;-73
2022/08/22 00:40:37;;;;;;;13.62;3.85;;;;;;;;;;1786121;79;21056;-74
2022/08/22 00:43:20;;;;;;;10.85;4.10;;;;;;;;;;1787466;78;21089;-73
2022/08/22 00:45:48;;;;;;;25.90;4.80;;;;;;;;;;1792362;78;21532;-74
2022/08/22 00:48:16;;;;;;;18.62;5.58;;;;;;;;;;1792475;78;21637;-74
2022/08/22 00:51:02;;;;;;;11.78;4.00;;;;;;;;;;1798033;78;21017;-74
2022/08/22 00:53:30;;;;;;;9.18;3.67;;;;;;;;;;1798958;78;21051;-74
2022/08/22 00:56:16;;;;;;;19.40;3.83;;;;;;;;;;1782880;78;21004;-74
2022/08/22 00:58:47;;;;;;;18.32;4.80;;;;;;;;;;1794654;79;21088;-74
2022/08/22 01:04:04;;;;;;;19.82;4.10;;;;;;;;;;1749678;78;76117;-74
2022/08/22 01:06:45;;;;;;;20.60;4.30;;;;;;;;;;1733310;81;21049;-74
2022/08/22 01:09:12;;;;;;;13.35;4.40;;;;;;;;;;1760349;80;21044;-74
2022/08/22 01:11:47;;;;;;;9.60;3.72;;;;;;;;;;1715760;83;21567;-74
2022/08/22 01:14:21;;;;;;;12.80;3.72;;;;;;;;;;1724943;82;21029;-73
2022/08/22 01:16:49;;;;;;;19.50;4.83;;;;;;;;;;1797357;79;21042;-74
2022/08/22 01:19:23;;;;;;;17.27;4.20;;;;;;;;;;1806398;79;21025;-74
2022/08/22 01:21:57;;;;;;;21.10;4.58;;;;;;;;;;1804755;79;21393;-73
2022/08/22 01:24:34;;;;;;;18.15;3.70;;;;;;;;;;1804751;79;21080;-74
2022/08/22 01:27:17;;;;;;;18.12;4.25;;;;;;;;;;1796821;79;21046;-74
2022/08/22 01:30:00;;;;;;;14.60;4.28;;;;;;;;;;1699182;84;21035;-74
2022/08/22 01:32:45;;;;;;;11.75;3.90;;;;;;;;;;1779847;79;21017;-74
2022/08/22 01:35:12;;;;;;;11.53;3.92;;;;;;;;;;1802948;79;21033;-74
2022/08/22 01:37:57;;;;;;;18.35;4.40;;;;;;;;;;1799318;79;21049;-74
2022/08/22 01:40:28;;;;;;;16.93;3.80;;;;;;;;;;1803894;78;20978;-74
2022/08/22 01:42:59;;;;;;;17.42;4.67;;;;;;;;;;1801313;79;21057;-74
2022/08/22 01:45:28;;;;;;;15.55;4.40;;;;;;;;;;1805835;78;21072;-75
2022/08/22 01:47:55;;;;;;;16.05;3.87;;;;;;;;;;1799746;79;21021;-75
2022/08/22 01:50:26;;;;;;;12.15;3.67;;;;;;;;;;1775700;79;21011;-74
2022/08/22 01:52:54;;;;;;;20.48;4.10;;;;;;;;;;1732723;82;20993;-74
2022/08/22 01:55:22;;;;;;;16.48;4.30;;;;;;;;;;1755872;81;21053;-74
2022/08/22 01:57:50;;;;;;;20.85;5.10;;;;;;;;;;1730628;82;21096;-74
2022/08/22 02:00:18;;;;;;;13.98;3.77;;;;;;;;;;1718177;82;21102;-75
2022/08/22 02:02:58;;;;;;;12.82;3.60;;;;;;;;;;1742173;82;21044;-74
2022/08/22 02:05:27;;;;;;;13.75;4.15;;;;;;;;;;1699143;83;21117;-74
2022/08/22 02:08:01;;;;;;;12.53;3.95;;;;;;;;;;1701138;83;21636;-74
2022/08/22 02:10:47;;;;;;;15.95;4.00;;;;;;;;;;1729620;82;21059;-75
2022/08/22 02:13:15;;;;;;;12.18;4.30;;;;;;;;;;1717021;83;21114;-75
2022/08/22 02:15:46;;;;;;;17.30;4.55;;;;;;;;;;1687241;84;21559;-74
2022/08/22 02:18:14;;;;;;;12.15;3.98;;;;;;;;;;1771230;80;21056;-74
2022/08/22 02:20:42;;;;;;;13.22;4.05;;;;;;;;;;1766367;80;21030;-74
2022/08/22 02:23:15;;;;;;;16.95;3.52;;;;;;;;;;1767798;80;21033;-73
2022/08/22 02:25:50;;;;;;;13.55;4.05;;;;;;;;;;1768764;80;21013;-73
2022/08/22 02:28:18;;;;;;;13.18;3.80;;;;;;;;;;1767740;80;20990;-74
2022/08/22 02:31:03;;;;;;;12.63;3.77;;;;;;;;;;1762763;80;21217;-75
2022/08/22 02:33:46;;;;;;;9.35;3.62;;;;;;;;;;1763204;80;21032;-75
2022/08/22 02:36:30;;;;;;;13.88;3.77;;;;;;;;;;1771727;80;21022;-76
2022/08/22 02:38:58;;;;;;;11.73;4.28;;;;;;;;;;1771654;80;21020;-76
2022/08/22 02:41:32;;;;;;;17.75;4.15;;;;;;;;;;1767927;80;20953;-76
2022/08/22 02:44:06;;;;;;;13.05;4.17;;;;;;;;;;1762913;81;21709;-76
2022/08/22 02:46:41;;;;;;;13.10;4.28;;;;;;;;;;1761794;81;21114;-76
2022/08/22 02:49:21;;;;;;;12.40;3.52;;;;;;;;;;1763842;80;21057;-75
2022/08/22 02:51:52;;;;;;;10.53;3.60;;;;;;;;;;1763591;81;21473;-75
2022/08/22 02:54:32;;;;;;;14.98;3.65;;;;;;;;;;1763842;81;21084;-76
2022/08/22 02:57:02;;;;;;;14.45;3.83;;;;;;;;;;1763247;80;21499;-76
2022/08/22 02:59:31;;;;;;;15.80;4.28;;;;;;;;;;1753900;80;21527;-76
2022/08/22 03:01:57;;;;;;;13.10;4.45;;;;;;;;;;1767436;80;21092;-76
2022/08/22 03:04:25;;;;;;;15.35;3.70;;;;;;;;;;1760324;80;21604;-75
2022/08/22 03:07:10;;;;;;;11.08;3.47;;;;;;;;;;1742857;82;21005;-76
2022/08/22 03:09:39;;;;;;;14.80;3.67;;;;;;;;;;1744253;81;21065;-75
2022/08/22 03:12:10;;;;;;;12.20;3.10;;;;;;;;;;1728132;82;21146;-75
2022/08/22 03:14:55;;;;;;;14.45;3.98;;;;;;;;;;1748947;82;21084;-75
2022/08/22 03:17:23;;;;;;;13.72;3.75;;;;;;;;;;1748291;82;21029;-76
2022/08/22 03:19:51;;;;;;;10.90;4.33;;;;;;;;;;1747694;82;21567;-76
2022/08/22 03:22:22;;;;;;;10.98;4.12;;;;;;;;;;1747849;82;21045;-76
2022/08/22 03:24:50;;;;;;;14.60;3.67;;;;;;;;;;1747510;82;21050;-76
2022/08/22 03:27:22;;;;;;;13.68;3.60;;;;;;;;;;1747525;82;21019;-76
2022/08/22 03:29:50;;;;;;;11.48;3.77;;;;;;;;;;1743914;81;21036;-75
2022/08/22 03:32:18;;;;;;;17.95;4.50;;;;;;;;;;1743936;81;21069;-75
2022/08/22 03:34:54;;;;;;;15.83;3.80;;;;;;;;;;1708297;83;21013;-75
2022/08/22 03:37:22;;;;;;;11.33;3.87;;;;;;;;;;1640218;86;22326;-75
2022/08/22 03:39:56;;;;;;;12.53;3.92;;;;;;;;;;1677123;85;20975;-75
2022/08/22 03:42:36;;;;;;;11.68;3.33;;;;;;;;;;1633041;86;21571;-75
2022/08/22 03:45:07;;;;;;;10.68;3.35;;;;;;;;;;1665128;85;21051;-74
2022/08/22 03:47:42;;;;;;;12.57;4.03;;;;;;;;;;1643487;86;21101;-75
2022/08/22 03:50:13;;;;;;;13.68;3.60;;;;;;;;;;1707153;84;21022;-75
2022/08/22 03:53:06;;;;;;;15.85;3.83;;;;;;;;;;1670879;85;21011;-75
2022/08/22 03:55:13;;;;;;;14.78;3.72;;;;;;;;;;1666423;84;21100;-75
2022/08/22 03:57:54;;;;;;;12.63;3.58;;;;;;;;;;1659280;86;21061;-75
2022/08/22 04:00:22;;;;;;;12.10;3.67;;;;;;;;;;1676536;85;21107;-75
2022/08/22 04:02:50;;;;;;;10.90;3.75;;;;;;;;;;1679496;84;21603;-75
2022/08/22 04:05:18;;;;;;;10.03;3.20;;;;;;;;;;1697500;83;21041;-77
2022/08/22 04:07:46;;;;;;;12.18;4.25;;;;;;;;;;1697897;84;21129;-78
2022/08/22 04:10:24;;;;;;;13.65;4.35;;;;;;;;;;1698077;84;21060;-76
2022/08/22 04:13:09;;;;;;;17.15;3.80;;;;;;;;;;1626135;85;21029;-76
2022/08/22 04:15:40;;;;;;;10.95;3.45;;;;;;;;;;1660884;84;21044;-76
2022/08/22 04:18:08;;;;;;;14.60;3.80;;;;;;;;;;1663936;86;21091;-75
2022/08/22 04:20:36;;;;;;;14.43;3.72;;;;;;;;;;1672061;86;21066;-75
2022/08/22 04:23:08;;;;;;;10.98;3.40;;;;;;;;;;1653087;87;21125;-75
2022/08/22 04:25:40;;;;;;;21.80;4.15;;;;;;;;;;1652612;85;21620;-75
2022/08/22 04:28:10;;;;;;;12.98;3.60;;;;;;;;;;1651947;87;21059;-73
2022/08/22 04:30:39;;;;;;;11.25;3.75;;;;;;;;;;1672521;84;21053;-75
2022/08/22 04:33:07;;;;;;;14.20;4.17;;;;;;;;;;1694084;84;21603;-75
2022/08/22 04:35:44;;;;;;;11.68;3.27;;;;;;;;;;1667713;84;21041;-73
2022/08/22 04:38:15;;;;;;;12.82;4.20;;;;;;;;;;1678277;84;21095;-75
2022/08/22 04:40:43;;;;;;;13.50;4.03;;;;;;;;;;1692634;84;21066;-76
2022/08/22 04:43:11;;;;;;;14.25;4.28;;;;;;;;;;1668017;85;21092;-75
2022/08/22 04:45:49;;;;;;;8.33;3.22;;;;;;;;;;1671894;85;21041;-75
2022/08/22 04:48:24;;;;;;;16.75;4.05;;;;;;;;;;1699881;84;21037;-76
2022/08/22 04:50:49;;;;;;;9.43;3.45;;;;;;;;;;1664318;86;21067;-77
2022/08/22 04:53:26;;;;;;;13.30;4.58;;;;;;;;;;1691080;84;21478;-76
2022/08/22 04:55:57;;;;;;;17.50;4.17;;;;;;;;;;1688207;84;21110;-77
2022/08/22 04:58:31;;;;;;;9.18;3.30;;;;;;;;;;1694526;84;21010;-76
2022/08/22 05:01:15;;;;;;;15.32;5.70;;;;;;;;;;1682813;84;21052;-76
2022/08/22 05:03:56;;;;;;;13.75;4.78;;;;;;;;;;1680747;82;21037;-79
2022/08/22 05:06:22;;;;;;;12.82;4.17;;;;;;;;;;1700074;83;21959;-79
2022/08/22 05:08:49;;;;;;;12.78;4.08;;;;;;;;;;1677324;85;21068;-77
2022/08/22 05:11:17;;;;;;;13.78;3.30;;;;;;;;;;1675152;85;21108;-74
2022/08/22 05:13:46;;;;;;;12.68;3.85;;;;;;;;;;1709638;82;21073;-75
2022/08/22 05:16:13;;;;;;;9.53;3.37;;;;;;;;;;1659765;85;21029;-75
2022/08/22 05:18:42;;;;;;;11.80;3.67;;;;;;;;;;1704801;83;21068;-75
2022/08/22 05:21:08;;;;;;;10.95;3.65;;;;;;;;;;1700302;82;21619;-74
2022/08/22 05:23:36;;;;;;;7.30;3.10;;;;;;;;;;1661228;85;21507;-75
2022/08/22 05:26:02;;;;;;;14.40;3.92;;;;;;;;;;1664225;85;21035;-74
2022/08/22 05:28:39;;;;;;;11.83;3.60;;;;;;;;;;1670255;85;21052;-73
2022/08/22 05:31:07;;;;;;;15.18;4.12;;;;;;;;;;1712755;83;21019;-74
2022/08/22 05:33:34;;;;;;;12.05;3.58;;;;;;;;;;1689903;84;21024;-73
2022/08/22 05:36:05;;;;;;;11.12;3.35;;;;;;;;;;1706322;84;21074;-73
2022/08/22 05:38:33;;;;;;;13.03;3.83;;;;;;;;;;1650795;86;21575;-73
2022/08/22 05:41:04;;;;;;;19.95;3.60;;;;;;;;;;1696728;82;21129;-70
2022/08/22 05:43:32;;;;;;;12.25;4.00;;;;;;;;;;1689994;84;21090;-82
2022/08/22 05:45:58;;;;;;;14.98;3.33;;;;;;;;;;1687606;84;21446;-81
2022/08/22 05:48:31;;;;;;;14.03;3.60;;;;;;;;;;1685186;85;21062;-84
2022/08/22 05:50:59;;;;;;;12.10;4.00;;;;;;;;;;1715341;83;21127;-85
2022/08/22 05:53:27;;;;;;;15.43;4.50;;;;;;;;;;1720135;83;21033;-85
2022/08/22 05:56:01;;;;;;;14.35;3.42;;;;;;;;;;1687475;83;21036;-83
2022/08/22 05:58:46;;;;;;;15.20;4.05;;;;;;;;;;1680936;84;21605;-81
2022/08/22 06:01:17;;;;;;;13.28;3.85;;;;;;;;;;1722064;82;21061;-81
2022/08/22 06:03:51;;;;;;;16.23;4.00;;;;;;;;;;1708456;83;21027;-81
2022/08/22 06:06:17;;;;;;;12.65;3.40;;;;;;;;;;1677696;84;21079;-81
2022/08/22 06:08:46;;;;;;;7.65;3.52;;;;;;;;;;1660307;86;21003;-80
2022/08/22 06:11:17;;;;;;;15.70;4.25;;;;;;;;;;1690188;85;21028;-82
2022/08/22 06:13:44;;;;;;;20.05;3.87;;;;;;;;;;1690895;85;21039;-81
2022/08/22 06:16:15;;;;;;;13.90;3.90;;;;;;;;;;1690179;84;21585;-80
2022/08/22 06:18:42;;;;;;;16.12;3.95;;;;;;;;;;1691677;85;21521;-80
2022/08/22 06:21:10;;;;;;;12.47;3.92;;;;;;;;;;1675866;85;21094;-79
2022/08/22 06:23:38;;;;;;;12.73;3.52;;;;;;;;;;1677500;85;22016;-80
2022/08/22 06:26:04;;;;;;;11.40;3.98;;;;;;;;;;1669810;84;21084;-81
2022/08/22 06:28:32;;;;;;;16.75;4.15;;;;;;;;;;1658416;85;21056;-81
2022/08/22 06:30:58;;;;;;;12.05;3.47;;;;;;;;;;1659309;86;21084;-81
2022/08/22 06:33:25;;;;;;;10.88;3.17;;;;;;;;;;1659192;86;21061;-81
2022/08/22 06:38:52;;;;;;;14.53;3.47;;;;;;;;;;1659189;86;21005;-80
2022/08/22 06:41:20;;;;;;;12.70;3.80;;;;;;;;;;1659222;86;21021;-80
2022/08/22 06:43:46;;;;;;;10.65;3.72;;;;;;;;;;1658754;86;21565;-80
2022/08/22 06:46:12;;;;;;;15.78;4.20;;;;;;;;;;1707043;84;21037;-80
2022/08/22 06:48:38;;;;;;;12.45;3.37;;;;;;;;;;1659350;86;21533;-80
2022/08/22 06:51:05;;;;;;;17.90;3.90;;;;;;;;;;1707139;84;21516;-80
2022/08/22 06:53:33;;;;;;;14.78;3.92;;;;;;;;;;1660275;86;21009;-80
2022/08/22 06:56:01;;;;;;;11.43;3.50;;;;;;;;;;1659750;86;21064;-80
2022/08/22 06:58:28;;;;;;;16.12;3.72;;;;;;;;;;1708055;84;21332;-81
2022/08/22 07:00:55;;;;;;;13.22;4.00;;;;;;;;;;1671895;85;20986;-81
2022/08/22 07:03:23;;;;;;;16.77;4.00;;;;;;;;;;1638985;86;21057;-79
2022/08/22 07:05:49;;;;;;;34.88;4.92;;;;;;;;;;1684003;84;21568;-80
2022/08/22 07:08:17;;;;;;;14.93;4.05;;;;;;;;;;1677113;84;21093;-80
2022/08/22 07:10:44;;;;;;;19.92;4.10;;;;;;;;;;1725846;83;21573;-80
2022/08/22 07:13:13;;;;;;;16.80;3.70;;;;;;;;;;1725746;83;21061;-80
2022/08/22 07:15:40;;;;;;;13.75;3.20;;;;;;;;;;1668938;84;21102;-80
2022/08/22 07:18:16;;;;;;;11.95;3.33;;;;;;;;;;1716276;82;21586;-79
2022/08/22 07:20:45;;;;;;;11.22;3.40;;;;;;;;;;1676008;84;21039;-79
2022/08/22 07:23:12;;;;;;;10.40;3.15;;;;;;;;;;1716091;82;21591;-80
2022/08/22 07:25:40;;;;;;;12.73;3.83;;;;;;;;;;1717270;83;21025;-80
2022/08/22 07:28:25;;;;;;;13.08;3.85;;;;;;;;;;1716268;83;21071;-79
2022/08/22 07:30:53;;;;;;;13.18;3.40;;;;;;;;;;1717238;83;21072;-80
2022/08/22 07:33:33;;;;;;;9.73;3.27;;;;;;;;;;1716294;83;21032;-79
2022/08/22 07:36:00;;;;;;;14.00;4.08;;;;;;;;;;1678301;83;21099;-79
2022/08/22 07:38:28;;;;;;;14.10;3.92;;;;;;;;;;1714052;82;21710;-78
2022/08/22 07:40:58;;;;;;;7.78;2.95;;;;;;;;;;1713592;84;21044;-80
2022/08/22 07:43:26;;;;;;;15.45;3.90;;;;;;;;;;1715732;83;21054;-79
2022/08/22 07:45:53;;;;;;;12.28;4.03;;;;;;;;;;1716490;83;21018;-79
2022/08/22 07:48:29;;;;;;;16.30;3.30;;;;;;;;;;1716789;83;21082;-78
2022/08/22 07:50:57;;;;;;;14.33;3.80;;;;;;;;;;1715935;83;21531;-79
2022/08/22 07:53:25;;;;;;;12.60;3.65;;;;;;;;;;1717190;83;21009;-78
2022/08/22 07:55:52;;;;;;;12.30;3.67;;;;;;;;;;1709823;83;21025;-79
2022/08/22 07:58:18;;;;;;;23.22;4.50;;;;;;;;;;1717262;83;21053;-79
2022/08/22 08:00:44;;;;;;;9.70;3.12;;;;;;;;;;1717063;83;21064;-80
2022/08/22 08:03:10;;;;;;;6.58;2.52;;;;;;;;;;1717201;83;21788;-79
2022/08/22 08:05:37;;;;;;;14.78;3.47;;;;;;;;;;1716254;83;21103;-79
2022/08/22 08:08:07;;;;;;;11.43;3.20;;;;;;;;;;1715619;84;21091;-78
2022/08/22 08:10:34;;;;;;;10.88;3.12;;;;;;;;;;1713659;83;21116;-77
2022/08/22 08:13:08;;;;;;;13.43;3.37;;;;;;;;;;1692693;83;21425;-76
2022/08/22 08:15:35;;;;;;;12.75;3.90;;;;;;;;;;1716603;83;21532;-76
2022/08/22 08:18:03;;;;;;;10.50;4.05;;;;;;;;;;1692695;83;21046;-77
2022/08/22 08:20:29;;;;;;;15.35;5.35;;;;;;;;;;1716761;83;21027;-78
2022/08/22 08:22:56;;;;;;;12.15;4.25;;;;;;;;;;1717099;83;21510;-79
2022/08/22 08:25:23;;;;;;;14.40;4.83;;;;;;;;;;1717130;83;20960;-79
2022/08/22 08:30:38;;;;;;;17.57;4.28;;;;;;;;;;1717051;83;21091;-78
2022/08/22 08:33:05;;;;;;;12.95;4.42;;;;;;;;;;1717202;83;21076;-77
2022/08/22 08:35:34;;;;;;;13.60;4.00;;;;;;;;;;1716909;83;21594;-78
2022/08/22 08:38:02;;;;;;;14.63;4.05;;;;;;;;;;1716825;83;21570;-76
2022/08/22 08:40:33;;;;;;;18.98;4.58;;;;;;;;;;1716606;83;21084;-76
2022/08/22 08:45:52;;;;;;;18.10;3.80;;;;;;;;;;1717120;83;20972;-78
2022/08/22 08:48:37;;;;;;;13.25;4.17;;;;;;;;;;1713019;83;21532;-78
2022/08/22 08:51:22;;;;;;;17.60;3.87;;;;;;;;;;1717067;83;21075;-78
2022/08/22 08:53:51;;;;;;;14.25;4.22;;;;;;;;;;1716930;83;21046;-78
2022/08/22 08:56:31;;;;;;;15.05;3.90;;;;;;;;;;1716561;82;21546;-78
2022/08/22 08:58:59;;;;;;;15.15;4.17;;;;;;;;;;1708110;83;21036;-78
2022/08/22 09:01:33;;;;;;;11.15;3.70;;;;;;;;;;1715919;82;21095;-78
2022/08/22 09:04:10;;;;;;;19.00;4.00;;;;;;;;;;1717156;83;21086;-79
2022/08/22 09:06:38;;;;;;;19.42;4.20;;;;;;;;;;1716987;83;21043;-79
2022/08/22 09:09:12;;;;;;;9.58;3.20;;;;;;;;;;1717321;83;21075;-78
2022/08/22 09:11:57;;;;;;;17.85;3.85;;;;;;;;;;1717512;83;21559;-79
2022/08/22 09:14:25;;;;;;;16.12;3.85;;;;;;;;;;1717136;83;21003;-77
2022/08/22 09:17:02;;;;;;;15.43;4.22;;;;;;;;;;1717060;83;21060;-78
2022/08/22 09:19:39;;;;;;;17.17;3.52;;;;;;;;;;1716093;83;21040;-78
2022/08/22 09:22:13;;;;;;;13.80;4.10;;;;;;;;;;1716896;83;21047;-78
2022/08/22 09:24:56;;;;;;;13.60;3.80;;;;;;;;;;1717040;83;21558;-78
2022/08/22 09:27:32;;;;;;;12.70;3.67;;;;;;;;;;1717122;83;21592;-78
2022/08/22 09:30:13;;;;;;;17.60;4.17;;;;;;;;;;1716965;83;21047;-77
2022/08/22 09:32:59;;;;;;;18.35;3.65;;;;;;;;;;1717298;83;21043;-77
2022/08/22 09:35:33;;;;;;;13.70;3.60;;;;;;;;;;1724387;83;21558;-77
2022/08/22 09:38:18;;;;;;;16.02;4.40;;;;;;;;;;1722511;82;21251;-77
2022/08/22 09:40:46;;;;;;;16.97;4.42;;;;;;;;;;1688518;84;21590;-77
2022/08/22 09:43:14;;;;;;;21.90;4.97;;;;;;;;;;1684965;84;21068;-75
2022/08/22 09:45:44;;;;;;;20.08;4.30;;;;;;;;;;1682907;85;21088;-75
2022/08/22 09:48:21;;;;;;;18.85;4.08;;;;;;;;;;1687639;85;21088;-78
2022/08/22 09:50:57;;;;;;;16.50;3.65;;;;;;;;;;1687974;84;21066;-77
2022/08/22 09:53:38;;;;;;;21.12;4.62;;;;;;;;;;1724661;83;21093;-77
2022/08/22 09:56:06;;;;;;;16.57;3.70;;;;;;;;;;1694828;84;21511;-77
2022/08/22 09:58:50;;;;;;;20.02;4.25;;;;;;;;;;1688272;85;21080;-77
2022/08/22 10:01:36;;;;;;;16.62;4.40;;;;;;;;;;1729240;82;21064;-77
2022/08/22 10:04:21;;;;;;;22.35;3.90;;;;;;;;;;1723917;82;21068;-77
2022/08/22 10:06:52;;;;;;;19.67;3.72;;;;;;;;;;1682191;85;21133;-77
2022/08/22 10:09:20;;;;;;;24.52;4.30;;;;;;;;;;1710766;84;21118;-77
2022/08/22 10:11:49;;;;;;;21.27;4.08;;;;;;;;;;1707057;84;21117;-76
2022/08/22 10:14:19;;;;;;;23.38;3.83;;;;;;;;;;1723786;82;21081;-77
2022/08/22 10:17:04;;;;;;;21.97;3.72;;;;;;;;;;1706963;84;21031;-76
2022/08/22 10:19:32;;;;;;;25.00;4.70;;;;;;;;;;1695214;84;21062;-78
2022/08/22 10:22:01;;;;;;;31.45;5.28;;;;;;;;;;1709418;84;21014;-78
2022/08/22 10:24:35;;;;;;;24.82;4.50;;;;;;;;;;1709601;84;21054;-78
2022/08/22 10:27:02;;;;;;;25.05;4.85;;;;;;;;;;1708407;84;21074;-79
2022/08/22 10:29:35;;;;;;;29.25;4.87;;;;;;;;;;1711280;84;21093;-79
2022/08/22 10:32:03;;;;;;;38.45;5.12;;;;;;;;;;1704600;84;21034;-79
2022/08/22 10:34:34;;;;;;;27.45;4.40;;;;;;;;;;1701933;84;21031;-79
2022/08/22 10:37:05;;;;;;;28.05;4.28;;;;;;;;;;1711234;84;21105;-79
2022/08/22 10:39:34;;;;;;;23.87;3.98;;;;;;;;;;1691113;84;21094;-79
2022/08/22 10:42:02;;;;;;;23.38;4.35;;;;;;;;;;1710011;84;21541;-78
2022/08/22 10:44:36;;;;;;;23.27;3.85;;;;;;;;;;1705852;84;20995;-79
2022/08/22 10:47:04;;;;;;;36.45;5.30;;;;;;;;;;1704022;84;21114;-80
2022/08/22 10:49:32;;;;;;;23.07;4.50;;;;;;;;;;1710969;84;21636;-79
2022/08/22 10:51:59;;;;;;;31.30;5.65;;;;;;;;;;1711044;84;21067;-80
2022/08/22 10:54:31;;;;;;;38.20;5.78;;;;;;;;;;1711327;84;21584;-79
2022/08/22 10:57:02;;;;;;;22.20;4.53;;;;;;;;;;1704832;84;21105;-79
2022/08/22 10:59:33;;;;;;;33.05;5.45;;;;;;;;;;1707898;84;21059;-79
2022/08/22 11:05:24;;;;;;;39.08;5.83;;;;;;;;;;1797887;79;22950;-72
2022/08/22 11:07:57;;;;;;;28.23;5.90;;;;;;;;;;1759512;80;21088;-72
2022/08/22 11:10:25;;;;;;;33.47;5.70;;;;;;;;;;1756662;80;20992;-73
2022/08/22 11:12:53;;;;;;;27.87;5.53;;;;;;;;;;1759451;80;21293;-73
2022/08/22 11:15:24;;;;;;;29.85;5.37;;;;;;;;;;1762997;80;21032;-72
2022/08/22 11:18:12;;;;;;;31.15;5.25;;;;;;;;;;1757835;80;21103;-72
2022/08/22 11:20:53;;;;;;;34.45;6.67;;;;;;;;;;1731503;83;21048;-73
2022/08/22 11:23:28;;;;;;;35.78;6.35;;;;;;;;;;1765697;80;21043;-73
2022/08/22 11:26:13;;;;;;;33.23;5.00;;;;;;;;;;1755115;81;21504;-73
2022/08/22 11:28:57;;;;;;;38.88;5.55;;;;;;;;;;1763974;80;21037;-73
2022/08/22 11:31:23;;;;;;;;;;;;;;;;;;1757320;82;21028;-73
2022/08/22 11:33:54;;;;;;;34.45;6.37;;;;;;;;;;1768663;80;20447;-73
2022/08/22 11:36:25;;;;;;;36.75;6.55;;;;;;;;;;1760107;81;20992;-73
2022/08/22 11:38:55;;;;;;;41.68;7.33;;;;;;;;;;1752926;81;21698;-74
2022/08/22 11:41:22;;;;;;;43.45;7.70;;;;;;;;;;1762972;80;21023;-74
2022/08/22 11:43:56;;;;;;;36.30;5.37;;;;;;;;;;1756463;81;21097;-74
2022/08/22 11:46:24;;;;;;;35.00;6.28;;;;;;;;;;1757587;81;22178;-73
2022/08/22 11:49:09;;;;;;;36.95;5.95;;;;;;;;;;1756043;80;20961;-73
2022/08/22 11:51:56;;;;;;;39.55;6.17;;;;;;;;;;1755984;80;21018;-72
2022/08/22 11:54:42;;;;;;;37.83;5.92;;;;;;;;;;1766530;80;21052;-74
2022/08/22 11:57:12;;;;;;;34.63;5.28;;;;;;;;;;1749143;80;21151;-73
2022/08/22 11:59:44;;;;;;;35.63;5.92;;;;;;;;;;1749986;82;21552;-74
2022/08/22 12:02:14;;;;;;;33.48;6.45;;;;;;;;;;1723208;83;21013;-74
2022/08/22 12:04:48;;;;;;;46.08;8.08;;;;;;;;;;1720936;82;21592;-72
2022/08/22 12:07:16;;;;;;;45.48;6.95;;;;;;;;;;1736567;82;20986;-75
2022/08/22 12:09:43;;;;;;;52.17;7.35;;;;;;;;;;1720406;82;21006;-74
2022/08/22 12:12:27;;;;;;;46.33;6.47;;;;;;;;;;1739712;81;21025;-74
2022/08/22 12:15:04;;;;;;;51.92;7.80;;;;;;;;;;1739684;82;21089;-74
2022/08/22 12:17:32;;;;;;;52.35;8.00;;;;;;;;;;1725137;82;21613;-74
2022/08/22 12:20:00;;;;;;;71.25;8.63;;;;;;;;;;1726555;82;21092;-73
2022/08/22 12:22:30;;;;;;;52.70;8.10;;;;;;;;;;1709485;84;21084;-72
2022/08/22 12:25:06;;;;;;;50.40;7.40;;;;;;;;;;1729918;82;21061;-74
2022/08/22 12:27:50;;;;;;;53.98;7.87;;;;;;;;;;1725208;82;21056;-73
2022/08/22 12:30:35;;;;;;;46.02;7.00;;;;;;;;;;1709901;84;21825;-71
2022/08/22 12:33:08;;;;;;;47.88;6.92;;;;;;;;;;1675977;85;21555;-73
2022/08/22 12:35:36;;;;;;;50.30;7.35;;;;;;;;;;1729591;82;20994;-73
2022/08/22 12:38:16;;;;;;;53.38;7.62;;;;;;;;;;1737864;82;21005;-73
2022/08/22 12:40:47;;;;;;;40.52;8.13;;;;;;;;;;1738930;82;21057;-74
2022/08/22 12:43:35;;;;;;;45.45;7.62;;;;;;;;;;1739823;82;21033;-74
2022/08/22 12:46:08;;;;;;;50.75;7.15;;;;;;;;;;1738558;82;20990;-73
2022/08/22 12:48:36;;;;;;;55.20;7.65;;;;;;;;;;1710185;82;21040;-72
2022/08/22 12:51:21;;;;;;;69.60;8.60;;;;;;;;;;1716335;82;21502;-74
2022/08/22 12:54:01;;;;;;;43.10;6.28;;;;;;;;;;1686753;84;21077;-73
2022/08/22 12:56:38;;;;;;;63.85;7.45;;;;;;;;;;1683956;82;21072;-74
2022/08/22 12:59:11;;;;;;;43.65;6.83;;;;;;;;;;1731950;82;21062;-73
2022/08/22 13:01:39;;;;;;;45.28;7.62;;;;;;;;;;1739273;82;21046;-75
2022/08/22 13:04:06;;;;;;;45.10;6.20;;;;;;;;;;1732025;81;21124;-74
2022/08/22 13:06:34;;;;;;;45.88;6.83;;;;;;;;;;1750899;81;21766;-75
2022/08/22 13:09:01;;;;;;;46.05;7.28;;;;;;;;;;1709234;83;21067;-74
2022/08/22 13:11:29;;;;;;;59.75;9.03;;;;;;;;;;1708063;84;21268;-72
2022/08/22 13:13:57;;;;;;;53.25;8.53;;;;;;;;;;1723639;83;21040;-72
2022/08/22 13:16:24;;;;;;;51.48;7.92;;;;;;;;;;1728163;82;21032;-73
2022/08/22 13:18:52;;;;;;;49.40;6.47;;;;;;;;;;1747161;82;21028;-74
2022/08/22 13:21:19;;;;;;;39.42;7.28;;;;;;;;;;1752064;81;20988;-73
2022/08/22 13:23:47;;;;;;;43.83;7.08;;;;;;;;;;1734129;82;21065;-72
2022/08/22 13:26:16;;;;;;;46.60;7.37;;;;;;;;;;1713814;82;21013;-72
2022/08/22 13:28:43;;;;;;;52.05;8.38;;;;;;;;;;1743947;82;21035;-72
2022/08/22 13:31:11;;;;;;;51.63;8.43;;;;;;;;;;1741318;80;21041;-73
2022/08/22 13:33:37;;;;;;;51.90;8.80;;;;;;;;;;1722591;83;21048;-73
2022/08/22 13:36:05;;;;;;;52.33;7.53;;;;;;;;;;1723522;83;21025;-73
2022/08/22 13:38:38;;;;;;;60.48;9.30;;;;;;;;;;1728799;82;20972;-74
2022/08/22 13:41:04;;;;;;;50.38;6.55;;;;;;;;;;1737638;82;21001;-71
2022/08/22 13:43:32;;;;;;;50.10;7.20;;;;;;;;;;1753507;81;21068;-72
2022/08/22 13:46:00;;;;;;;37.00;6.78;;;;;;;;;;1739785;82;21005;-73
2022/08/22 13:48:27;;;;;;;34.10;5.62;;;;;;;;;;1740221;82;21496;-74
2022/08/22 13:51:00;;;;;;;48.95;7.80;;;;;;;;;;1723400;83;21619;-73
2022/08/22 13:53:30;;;;;;;41.10;6.05;;;;;;;;;;1737469;82;21029;-73
2022/08/22 13:56:01;;;;;;;43.70;5.83;;;;;;;;;;1753097;82;21131;-74
2022/08/22 13:58:32;;;;;;;36.93;6.03;;;;;;;;;;1753510;81;21060;-73
2022/08/22 14:01:17;;;;;;;43.70;6.37;;;;;;;;;;1748918;82;21001;-73
2022/08/22 14:03:45;;;;;;;31.25;5.87;;;;;;;;;;1750738;80;21051;-73
2022/08/22 14:06:22;;;;;;;35.52;5.62;;;;;;;;;;1721913;82;21076;-73
2022/08/22 14:08:51;;;;;;;44.00;6.28;;;;;;;;;;1688770;84;21032;-77
2022/08/22 14:11:24;;;;;;;35.63;5.65;;;;;;;;;;1696135;84;21111;-73
2022/08/22 14:13:59;;;;;;;35.48;5.85;;;;;;;;;;1702998;84;21042;-73
2022/08/22 14:16:25;;;;;;;;;;;;;;;;;;1706848;84;21020;-73
2022/08/22 14:18:53;;;;;;;29.32;5.75;;;;;;;;;;1671297;86;20185;-73
2022/08/22 14:21:36;;;;;;;45.40;6.33;;;;;;;;;;1676968;84;21874;-73
2022/08/22 14:24:05;;;;;;;35.70;5.42;;;;;;;;;;1679944;84;21127;-73
2022/08/22 14:26:33;;;;;;;41.18;5.75;;;;;;;;;;1697625;84;21065;-73
2022/08/22 14:28:59;;;;;;;42.90;5.55;;;;;;;;;;1698435;84;21064;-73
2022/08/22 14:31:25;;;;;;;33.73;5.97;;;;;;;;;;1677711;84;21580;-73
2022/08/22 14:33:56;;;;;;;28.15;5.20;;;;;;;;;;1682502;84;21669;-73
2022/08/22 14:36:24;;;;;;;29.00;4.72;;;;;;;;;;1675602;84;21576;-73
2022/08/22 14:38:58;;;;;;;31.33;4.90;;;;;;;;;;1675284;84;21039;-73
2022/08/22 14:41:31;;;;;;;37.35;6.12;;;;;;;;;;1686261;84;21004;-72
2022/08/22 14:43:57;;;;;;;;;;;;;;;;;;1692284;84;21068;-72
2022/08/22 14:46:25;;;;;;;34.35;5.30;;;;;;;;;;1689809;84;20364;-73
2022/08/22 14:49:09;;;;;;;34.35;4.78;;;;;;;;;;1689427;84;21084;-73
2022/08/22 14:51:37;;;;;;;36.20;5.67;;;;;;;;;;1680085;84;21167;-72
2022/08/22 14:54:11;;;;;;;28.35;6.08;;;;;;;;;;1697160;84;21007;-71
2022/08/22 14:56:37;;;;;;;33.98;5.47;;;;;;;;;;1744641;80;21463;-75
2022/08/22 14:59:04;;;;;;;36.80;5.42;;;;;;;;;;1715217;82;21028;-76
2022/08/22 15:01:31;;;;;;;29.85;5.05;;;;;;;;;;1729916;82;21096;-75
2022/08/22 15:04:02;;;;;;;40.55;5.80;;;;;;;;;;1726380;82;20992;-76
2022/08/22 15:06:34;;;;;;;26.65;4.50;;;;;;;;;;1744516;81;21065;-75
2022/08/22 15:09:00;;;;;;;29.02;5.05;;;;;;;;;;1734455;82;21483;-74
2022/08/22 15:11:26;;;;;;;35.33;5.40;;;;;;;;;;1740615;82;21040;-76